createdAt,value
2022-09-30T00:01:39.886Z,100644.53
2022-09-30T00:06:35.290Z,100669.28
2022-09-30T00:11:31.242Z,100667.75
2022-09-30T00:16:25.109Z,100624.50
2022-09-30T00:21:19.822Z,100629.06
2022-09-30T00:26:15.162Z,100672.66
2022-09-30T00:31:10.216Z,100608.81
2022-09-30T00:36:04.164Z,100590.84
2022-09-30T00:40:59.815Z,100574.16
2022-09-30T00:45:57.988Z,100665.44
2022-09-30T00:50:55.631Z,100652.47
2022-09-30T00:55:56.059Z,100628.56
2022-09-30T01:00:52.797Z,100674.69
2022-09-30T01:05:46.041Z,100662.09
2022-09-30T01:10:39.245Z,100666.31
2022-09-30T01:15:52.381Z,100623.34
2022-09-30T01:21:14.436Z,100646.28
2022-09-30T01:26:36.377Z,100672.13
2022-09-30T01:31:44.412Z,100664.56
2022-09-30T01:36:54.437Z,100637.50
2022-09-30T01:41:54.773Z,100683.50
2022-09-30T01:46:56.298Z,100670.44
2022-09-30T01:51:56.826Z,100586.28
2022-09-30T01:56:54.058Z,100644.44
2022-09-30T02:01:55.172Z,100663.41
2022-09-30T02:06:53.360Z,100658.50
2022-09-30T02:11:46.526Z,100664.09
2022-09-30T02:16:42.000Z,100695.63
2022-09-30T02:21:41.424Z,100706.97
2022-09-30T02:26:38.813Z,100706.97
2022-09-30T02:31:35.509Z,100709.31
2022-09-30T02:36:33.447Z,100714.56
2022-09-30T02:41:32.047Z,100723.75
2022-09-30T02:46:33.312Z,100727.81
2022-09-30T02:51:40.149Z,100705.97
2022-09-30T02:56:50.372Z,100718.72
2022-09-30T03:01:44.835Z,100674.34
2022-09-30T03:06:38.841Z,100722.72
2022-09-30T03:11:34.039Z,100694.56
2022-09-30T03:16:41.782Z,100731.78
2022-09-30T03:21:46.915Z,100733.69
2022-09-30T03:26:53.652Z,100730.13
2022-09-30T03:31:58.918Z,100698.09
2022-09-30T03:37:04.355Z,100719.22
2022-09-30T03:42:09.737Z,100659.13
2022-09-30T03:47:07.479Z,100698.09
2022-09-30T03:52:06.201Z,100727.84
2022-09-30T03:57:05.332Z,100732.84
2022-09-30T04:01:58.626Z,100728.28
2022-09-30T04:06:51.891Z,100730.50
2022-09-30T04:11:45.169Z,100725.81
2022-09-30T04:16:39.973Z,100685.50
2022-09-30T04:21:33.263Z,100735.34
2022-09-30T04:26:26.587Z,100691.19
2022-09-30T04:31:21.537Z,100724.00
2022-09-30T04:36:16.479Z,100741.28
2022-09-30T04:41:14.266Z,100754.84
2022-09-30T04:46:07.977Z,100740.31
2022-09-30T04:51:01.352Z,100761.19
2022-09-30T04:56:01.562Z,100772.53
2022-09-30T05:01:01.105Z,100779.34
2022-09-30T05:05:56.543Z,100654.56
2022-09-30T05:10:57.429Z,100624.78
2022-09-30T05:15:52.559Z,100811.72
2022-09-30T05:20:45.716Z,100788.56
2022-09-30T05:25:38.871Z,100806.16
2022-09-30T05:30:32.063Z,100799.53
2022-09-30T05:35:26.815Z,100785.81
2022-09-30T05:40:20.066Z,100759.94
2022-09-30T05:45:13.345Z,100691.78
2022-09-30T05:50:07.388Z,100788.69
2022-09-30T05:55:02.135Z,100774.41
2022-09-30T05:59:55.437Z,100745.63
2022-09-30T06:04:48.605Z,100828.78
2022-09-30T06:09:41.942Z,100771.78
2022-09-30T06:14:36.886Z,100764.63
2022-09-30T06:19:31.638Z,100774.16
2022-09-30T06:24:24.997Z,100804.66
2022-09-30T06:29:19.762Z,100784.06
2022-09-30T06:34:16.990Z,100868.97
2022-09-30T06:39:13.522Z,100788.81
2022-09-30T06:44:08.020Z,100816.88
2022-09-30T06:49:12.150Z,100874.69
2022-09-30T06:54:09.248Z,100881.34
2022-09-30T06:59:02.528Z,100864.06
2022-09-30T07:03:58.160Z,100879.78
2022-09-30T07:08:51.813Z,100776.38
2022-09-30T07:13:47.201Z,100888.94
2022-09-30T07:18:42.397Z,100759.91
2022-09-30T07:23:35.658Z,100877.28
2022-09-30T07:28:31.498Z,100906.28
2022-09-30T07:33:31.320Z,100892.81
2022-09-30T07:38:25.682Z,100906.38
2022-09-30T07:43:21.781Z,100900.38
2022-09-30T07:48:35.057Z,100923.94
2022-09-30T07:53:29.608Z,100924.16
2022-09-30T07:58:23.085Z,100831.94
2022-09-30T08:03:16.503Z,100924.38
2022-09-30T08:08:09.618Z,100925.72
2022-09-30T08:13:06.394Z,100920.47
2022-09-30T08:17:59.652Z,100898.47
2022-09-30T08:22:54.673Z,100921.34
2022-09-30T08:27:47.847Z,100945.09
2022-09-30T08:32:42.456Z,100946.16
2022-09-30T08:37:35.686Z,100934.84
2022-09-30T08:42:49.660Z,100946.41
2022-09-30T08:47:53.459Z,100944.03
2022-09-30T08:52:49.547Z,100921.00
2022-09-30T08:57:47.664Z,100949.09
2022-09-30T09:02:50.279Z,100951.69
2022-09-30T09:07:54.265Z,100956.53
2022-09-30T09:12:57.450Z,100940.00
2022-09-30T09:18:41.811Z,100927.44
2022-09-30T09:23:36.646Z,100957.25
2022-09-30T09:28:37.796Z,100823.31
2022-09-30T09:33:33.523Z,100953.69
2022-09-30T09:38:36.098Z,100920.56
2022-09-30T09:43:44.166Z,100934.38
2022-09-30T09:48:37.411Z,100939.25
2022-09-30T09:53:49.230Z,100955.56
2022-09-30T09:59:11.402Z,100920.22
2022-09-30T10:04:11.184Z,100948.38
2022-09-30T10:09:07.546Z,100913.81
2022-09-30T10:14:02.548Z,100941.06
2022-09-30T10:18:56.208Z,100937.16
2022-09-30T10:23:49.812Z,100937.56
2022-09-30T10:28:47.930Z,100915.63
2022-09-30T10:33:47.063Z,100935.31
2022-09-30T10:38:53.597Z,100927.25
2022-09-30T10:43:53.722Z,100939.56
2022-09-30T10:48:51.172Z,100923.72
2022-09-30T10:53:45.531Z,100924.50
2022-09-30T10:58:47.725Z,100904.16
2022-09-30T11:03:49.845Z,100879.50
2022-09-30T11:08:50.146Z,100931.47
2022-09-30T11:13:49.738Z,100933.53
2022-09-30T11:18:50.800Z,100852.38
2022-09-30T11:23:50.397Z,100931.44
2022-09-30T11:29:00.695Z,100941.53
2022-09-30T11:34:23.944Z,100922.34
2022-09-30T11:39:47.604Z,100945.38
2022-09-30T11:44:44.440Z,100926.69
2022-09-30T11:50:06.962Z,100942.69
2022-09-30T11:55:31.289Z,100954.06
2022-09-30T12:00:25.038Z,100951.38
2022-09-30T12:05:21.705Z,100866.19
2022-09-30T12:10:23.816Z,100905.47
2022-09-30T12:15:21.591Z,100909.53
2022-09-30T12:20:22.246Z,100878.72
2022-09-30T12:25:21.767Z,100922.81
2022-09-30T12:30:20.538Z,100911.81
2022-09-30T12:35:33.329Z,100941.75
2022-09-30T12:40:53.005Z,100935.78
2022-09-30T12:46:15.983Z,100941.22
2022-09-30T12:51:22.647Z,100766.97
2022-09-30T12:56:20.202Z,100930.94
2022-09-30T13:01:16.981Z,100861.31
2022-09-30T13:06:10.539Z,100929.06
2022-09-30T13:11:08.038Z,100922.97
2022-09-30T13:16:06.661Z,100911.50
2022-09-30T13:21:20.227Z,100770.56
2022-09-30T13:26:45.630Z,100877.28
2022-09-30T13:32:07.966Z,100885.44
2022-09-30T13:37:03.030Z,100930.00
2022-09-30T13:42:11.951Z,100934.06
2022-09-30T13:47:19.213Z,100950.59
2022-09-30T13:52:35.343Z,100948.69
2022-09-30T13:57:36.633Z,100957.47
2022-09-30T14:03:08.383Z,100830.66
2022-09-30T14:08:35.033Z,100968.50
2022-09-30T14:13:47.369Z,100947.16
2022-09-30T14:19:11.328Z,100932.50
2022-09-30T14:24:12.303Z,100982.94
2022-09-30T14:29:13.906Z,100978.50
2022-09-30T14:34:12.461Z,100940.28
2022-09-30T14:39:14.528Z,100881.50
2022-09-30T14:44:08.960Z,100912.00
2022-09-30T14:49:06.834Z,101003.09
2022-09-30T14:54:02.352Z,100998.41
2022-09-30T14:58:58.115Z,100931.81
2022-09-30T15:03:55.754Z,101016.97
2022-09-30T15:08:50.829Z,101008.50
2022-09-30T15:13:46.251Z,101033.88
2022-09-30T15:18:47.372Z,101041.88
2022-09-30T15:23:43.963Z,100977.28
2022-09-30T15:28:38.301Z,101043.72
2022-09-30T15:33:34.470Z,101056.28
2022-09-30T15:38:34.705Z,101044.06
2022-09-30T15:43:35.807Z,101072.03
2022-09-30T15:48:36.439Z,101069.31
2022-09-30T15:53:32.805Z,101073.56
2022-09-30T15:58:33.948Z,101056.47
2022-09-30T16:03:29.542Z,101029.88
2022-09-30T16:08:28.744Z,101099.88
2022-09-30T16:13:26.892Z,101070.81
2022-09-30T16:18:24.918Z,101086.31
2022-09-30T16:23:31.481Z,101077.56
2022-09-30T16:28:27.868Z,101116.78
2022-09-30T16:33:23.925Z,101113.81
2022-09-30T16:38:20.852Z,101131.31
2022-09-30T16:43:27.144Z,101033.97
2022-09-30T16:48:21.942Z,101105.28
2022-09-30T16:53:15.561Z,101072.31
2022-09-30T16:58:13.434Z,101152.41
2022-09-30T17:03:08.603Z,101115.72
2022-09-30T17:08:02.760Z,101085.88
2022-09-30T17:12:56.587Z,100968.19
2022-09-30T17:17:50.541Z,101160.22
2022-09-30T17:22:46.182Z,101141.63
2022-09-30T17:27:40.066Z,101087.66
2022-09-30T17:32:33.550Z,101147.97
2022-09-30T17:37:27.751Z,101177.03
2022-09-30T17:43:01.999Z,101193.22
2022-09-30T17:47:55.507Z,101201.88
2022-09-30T17:52:51.812Z,101130.59
2022-09-30T17:57:53.330Z,101217.94
2022-09-30T18:02:54.684Z,101174.75
2022-09-30T18:07:48.624Z,101094.75
2022-09-30T18:12:42.516Z,101131.69
2022-09-30T18:17:37.271Z,101188.53
2022-09-30T18:22:33.128Z,101197.19
2022-09-30T18:27:28.100Z,101127.63
2022-09-30T18:32:21.555Z,101235.19
2022-09-30T18:37:16.415Z,101240.34
2022-09-30T18:42:09.771Z,101244.31
2022-09-30T18:47:03.224Z,101151.41
2022-09-30T18:51:56.543Z,101073.03
2022-09-30T18:56:56.588Z,101091.56
2022-09-30T19:01:49.984Z,101178.75
2022-09-30T19:06:45.238Z,101152.03
2022-09-30T19:11:42.800Z,101241.91
2022-09-30T19:16:38.906Z,101247.72
2022-09-30T19:21:35.394Z,101256.84
2022-09-30T19:26:30.381Z,101212.72
2022-09-30T19:31:24.664Z,101245.59
2022-09-30T19:36:19.432Z,101266.16
2022-09-30T19:41:13.984Z,101241.06
2022-09-30T19:46:10.663Z,101257.13
2022-09-30T19:51:07.404Z,101278.97
2022-09-30T19:56:08.023Z,101236.94
2022-09-30T20:01:02.422Z,101293.13
2022-09-30T20:06:03.834Z,101224.88
2022-09-30T20:11:05.147Z,101156.84
2022-09-30T20:16:03.872Z,101302.31
2022-09-30T20:20:57.566Z,101188.44
2022-09-30T20:25:52.976Z,101300.47
2022-09-30T20:30:48.874Z,101280.38
2022-09-30T20:35:42.155Z,101101.50
2022-09-30T20:40:36.114Z,101251.50
2022-09-30T20:45:29.805Z,101190.72
2022-09-30T20:50:36.013Z,101316.28
2022-09-30T20:55:31.637Z,101188.03
2022-09-30T21:00:25.158Z,101146.75
2022-09-30T21:05:28.033Z,101259.94
2022-09-30T21:10:23.069Z,101324.47
2022-09-30T21:15:20.633Z,101330.16
2022-09-30T21:20:17.060Z,101193.13
2022-09-30T21:25:13.232Z,101310.22
2022-09-30T22:24:29.915Z,101362.50
2022-09-30T22:29:23.248Z,101371.06
2022-09-30T22:34:33.962Z,101383.88
2022-09-30T22:39:28.853Z,101319.97
2022-09-30T22:44:25.767Z,101363.28
2022-09-30T22:49:20.185Z,101351.88
2022-09-30T22:54:13.613Z,101382.13
2022-09-30T22:59:08.383Z,101318.03
2022-09-30T23:04:01.815Z,101367.91
2022-09-30T23:08:56.097Z,101407.09
2022-09-30T23:13:49.418Z,101423.88
2022-09-30T23:18:46.407Z,101395.34
2022-09-30T23:23:40.622Z,101431.38
2022-09-30T23:28:34.181Z,101427.91
2022-09-30T23:33:27.496Z,101392.16
2022-09-30T23:38:22.442Z,101422.09
2022-09-30T23:43:16.176Z,101393.69
2022-09-30T23:48:09.815Z,101398.53
2022-09-30T23:53:03.265Z,101420.13
2022-09-30T23:57:58.024Z,101335.97
